Time;durP1;ratioP1;P1;durP2;ratioP2;P2;SDS_P1;SDS_P2;PMS_P1;PMS_P2;Temp;Humidity;BMP_temperature;BMP_pressure;BME280_temperature;BME280_humidity;BME280_pressure;Samples;Min_cycle;Max_cycle;Signal;HPM_P1;HPM_P2
2021/01/31 00:00:31;;;;;;;13.47;7.43;;;;;;;-1.56;76.05;99665.16;5004102;28;20399;-75
2021/01/31 00:02:58;;;;;;;10.83;7.43;;;;;;;-1.49;76.59;99661.06;5005939;28;20084;-75
2021/01/31 00:05:24;;;;;;;11.20;6.40;;;;;;;-1.61;76.46;99660.69;5003704;28;20397;-75
2021/01/31 00:07:51;;;;;;;11.90;7.43;;;;;;;-1.59;76.30;99659.03;5001439;28;20045;-75
2021/01/31 00:10:19;;;;;;;13.23;7.50;;;;;;;-1.61;76.22;99660.69;5003427;28;20104;-75
2021/01/31 00:12:44;;;;;;;14.13;8.57;;;;;;;-1.67;77.03;99660.53;5005817;28;20445;-76
2021/01/31 00:15:13;;;;;;;12.90;7.57;;;;;;;-1.64;76.22;99665.78;5005450;28;20080;-75
2021/01/31 00:17:38;;;;;;;13.40;7.50;;;;;;;-1.65;76.50;99661.44;5002344;28;20045;-75
2021/01/31 00:20:04;;;;;;;11.77;7.53;;;;;;;-1.64;76.40;99665.78;5002323;28;20584;-76
2021/01/31 00:22:30;;;;;;;12.33;6.23;;;;;;;-1.75;76.11;99662.03;5005171;28;20040;-75
2021/01/31 00:24:55;;;;;;;13.70;8.77;;;;;;;-1.82;76.62;99658.38;5005589;28;20478;-76
2021/01/31 00:27:22;;;;;;;12.33;6.87;;;;;;;-1.84;76.80;99668.66;5003556;28;20488;-76
2021/01/31 00:29:48;;;;;;;12.13;8.33;;;;;;;-1.87;76.57;99665.97;5002026;28;20501;-76
2021/01/31 00:32:13;;;;;;;12.67;7.83;;;;;;;-1.90;76.92;99665.91;5017997;28;20104;-76
2021/01/31 00:34:39;;;;;;;12.10;7.60;;;;;;;-1.95;76.52;99664.88;5005380;28;20407;-75
2021/01/31 00:37:04;;;;;;;13.93;8.00;;;;;;;-1.97;77.36;99669.13;5005172;28;20492;-75
2021/01/31 00:39:29;;;;;;;11.63;7.73;;;;;;;-1.93;76.96;99660.63;5002676;28;20523;-75
2021/01/31 00:41:54;;;;;;;12.40;7.67;;;;;;;-1.92;77.00;99667.56;5000722;28;20038;-76
2021/01/31 00:44:20;;;;;;;12.43;7.57;;;;;;;-1.97;77.00;99671.72;5001828;28;20034;-75
2021/01/31 00:46:45;;;;;;;11.87;7.63;;;;;;;-2.03;77.58;99656.03;5008006;28;20033;-75
2021/01/31 00:49:11;;;;;;;12.47;8.00;;;;;;;-2.07;77.73;99659.31;5011793;28;20029;-75
2021/01/31 00:51:37;;;;;;;11.87;7.80;;;;;;;-2.04;77.55;99659.44;5003755;28;20554;-75
2021/01/31 00:54:03;;;;;;;12.37;7.27;;;;;;;-2.08;77.49;99657.59;5003876;28;20022;-75
2021/01/31 00:56:29;;;;;;;10.50;7.10;;;;;;;-2.10;77.40;99659.25;5000830;28;20311;-75
2021/01/31 00:58:54;;;;;;;11.63;7.13;;;;;;;-2.16;77.45;99659.06;5016478;28;20031;-75
2021/01/31 01:01:20;;;;;;;13.43;8.63;;;;;;;-2.24;77.42;99662.28;5018315;28;20034;-75
2021/01/31 01:03:45;;;;;;;12.03;7.77;;;;;;;-2.25;77.28;99657.97;5019886;28;20061;-75
2021/01/31 01:06:17;;;;;;;11.05;7.45;;;;;;;-2.29;77.26;99668.16;5003447;28;20034;-74
2021/01/31 01:08:43;;;;;;;14.07;8.70;;;;;;;-2.46;76.53;99660.75;5000180;28;20037;-76
2021/01/31 01:11:08;;;;;;;14.80;8.53;;;;;;;-2.54;77.89;99666.47;5001399;28;20026;-75
2021/01/31 01:13:33;;;;;;;12.87;7.83;;;;;;;-2.55;77.34;99669.91;5004494;28;20092;-75
2021/01/31 01:15:59;;;;;;;11.87;7.43;;;;;;;-2.57;77.51;99674.13;5004433;28;20037;-75
2021/01/31 01:18:24;;;;;;;13.43;7.83;;;;;;;-2.61;77.99;99670.56;5001374;28;20038;-75
2021/01/31 01:20:49;;;;;;;14.30;7.97;;;;;;;-2.60;78.34;99666.28;5001159;28;20126;-75
2021/01/31 01:23:15;;;;;;;14.03;8.07;;;;;;;-2.56;78.22;99666.44;5001881;28;20045;-75
2021/01/31 01:25:40;;;;;;;11.50;7.40;;;;;;;-2.54;77.88;99671.63;5002967;28;20034;-75
2021/01/31 01:28:06;;;;;;;15.10;8.00;;;;;;;-2.51;78.74;99671.75;5004381;28;20033;-75
2021/01/31 01:30:32;;;;;;;12.63;8.10;;;;;;;-2.49;77.99;99664.91;5000077;28;20084;-76
2021/01/31 01:32:58;;;;;;;11.93;6.97;;;;;;;-2.49;77.79;99663.22;5007143;28;20036;-75
2021/01/31 01:35:25;;;;;;;12.37;8.13;;;;;;;-2.44;77.58;99660.78;5004000;28;20041;-74
2021/01/31 01:37:51;;;;;;;11.03;6.63;;;;;;;-2.52;77.58;99662.25;5004118;28;20037;-75
2021/01/31 01:40:26;;;;;;;12.53;8.07;;;;;;;-2.61;77.21;99657.66;5002688;28;20100;-74
2021/01/31 01:42:51;;;;;;;13.73;7.87;;;;;;;-2.76;78.21;99658.03;5000675;28;20034;-75
2021/01/31 01:45:18;;;;;;;16.13;8.67;;;;;;;-2.82;78.51;99660.41;5001572;28;20078;-75
2021/01/31 01:47:45;;;;;;;13.73;8.23;;;;;;;-2.79;79.39;99649.31;5004078;28;20045;-76
2021/01/31 01:50:34;;;;;;;14.27;8.17;;;;;;;-2.66;78.57;99662.66;5003739;28;20037;-75
2021/01/31 01:53:00;;;;;;;13.23;7.97;;;;;;;-2.59;77.96;99668.03;4993319;28;20534;-76
2021/01/31 01:55:30;;;;;;;14.53;8.20;;;;;;;-2.55;77.48;99665.59;5017559;28;20042;-76
2021/01/31 01:58:04;;;;;;;13.70;8.60;;;;;;;-2.51;77.95;99666.59;5003972;28;20037;-75
2021/01/31 02:00:29;;;;;;;11.67;7.43;;;;;;;-2.53;78.23;99668.25;4999820;28;20066;-75
2021/01/31 02:03:03;;;;;;;15.53;8.43;;;;;;;-2.65;78.20;99668.72;5015461;28;20073;-75
2021/01/31 02:05:29;;;;;;;14.17;8.80;;;;;;;-2.74;78.70;99673.59;5002768;28;20044;-75
2021/01/31 02:07:54;;;;;;;13.10;7.93;;;;;;;-2.73;78.75;99667.59;5003670;28;20125;-75
2021/01/31 02:10:23;;;;;;;11.40;7.07;;;;;;;-2.75;77.91;99675.28;5002264;28;20088;-75
2021/01/31 02:12:53;;;;;;;13.27;7.47;;;;;;;-2.79;78.19;99668.25;5000405;28;20076;-75
2021/01/31 02:15:19;;;;;;;12.93;7.80;;;;;;;-2.76;77.88;99667.47;5000079;28;20042;-76
2021/01/31 02:18:06;;;;;;;12.63;7.67;;;;;;;-2.81;78.36;99666.44;5003669;28;20100;-74
2021/01/31 02:20:34;;;;;;;17.00;10.40;;;;;;;-2.84;78.86;99667.22;5011299;28;20037;-74
2021/01/31 02:23:28;;;;;;;12.20;7.40;;;;;;;-2.95;79.20;99669.44;5003453;28;20042;-75
2021/01/31 02:26:01;;;;;;;16.90;9.20;;;;;;;-2.94;78.67;99660.00;4998655;28;20121;-75
2021/01/31 02:28:35;;;;;;;;;;;;;;;-3.05;79.13;99669.97;5002854;28;20040;-75
2021/01/31 02:31:17;;;;;;;12.33;7.37;;;;;;;-3.15;79.28;99671.34;5002194;28;20035;-75
2021/01/31 02:33:58;;;;;;;14.45;8.10;;;;;;;-3.18;78.77;99675.53;5000197;28;20065;-75
2021/01/31 02:36:45;;;;;;;13.10;7.70;;;;;;;-3.24;79.05;99670.16;5000511;28;20489;-75
2021/01/31 02:39:40;;;;;;;12.47;6.73;;;;;;;-3.43;79.33;99671.19;5003377;28;20503;-75
2021/01/31 02:42:17;;;;;;;13.40;8.00;;;;;;;-3.52;78.37;99676.91;4999989;28;20042;-75
2021/01/31 02:44:48;;;;;;;14.83;8.27;;;;;;;-3.64;78.50;99682.50;4998766;28;20377;-75
2021/01/31 02:47:19;;;;;;;19.43;11.07;;;;;;;-3.77;78.96;99681.16;5000257;28;20034;-74
2021/01/31 02:49:54;;;;;;;14.63;9.03;;;;;;;-3.86;78.50;99682.50;5003349;28;20033;-75
2021/01/31 02:52:30;;;;;;;14.30;8.23;;;;;;;-4.02;79.42;99681.94;5005326;28;20038;-75
2021/01/31 02:55:08;;;;;;;14.60;8.40;;;;;;;-4.18;78.92;99679.59;5003927;28;20077;-75
2021/01/31 02:57:39;;;;;;;14.60;8.70;;;;;;;-4.28;79.42;99682.63;5007181;28;20050;-74
2021/01/31 03:00:25;;;;;;;15.07;8.30;;;;;;;-4.46;80.18;99686.22;5007060;28;20041;-75
2021/01/31 03:03:10;;;;;;;15.63;8.87;;;;;;;-4.55;79.55;99688.44;5003854;28;20058;-75
2021/01/31 03:05:42;;;;;;;16.90;9.43;;;;;;;-4.61;80.41;99690.75;5032306;22;20064;-79
2021/01/31 03:08:38;;;;;;;15.38;8.68;;;;;;;-4.72;79.69;99687.72;5029874;28;20088;-79
2021/01/31 03:11:06;;;;;;;14.57;8.43;;;;;;;-4.80;79.73;99685.66;5026317;28;20060;-79
2021/01/31 03:13:38;;;;;;;12.97;7.27;;;;;;;-4.85;79.80;99699.25;5028180;28;20692;-78
2021/01/31 03:16:11;;;;;;;16.58;9.52;;;;;;;-4.88;80.21;99693.94;5021962;28;20392;-78
2021/01/31 03:18:41;;;;;;;14.00;8.27;;;;;;;-4.88;81.01;99698.22;5025551;28;20067;-77
2021/01/31 03:21:19;;;;;;;14.23;7.73;;;;;;;-4.88;81.14;99700.78;5025876;28;20137;-80
2021/01/31 03:23:49;;;;;;;13.57;7.43;;;;;;;-4.83;80.25;99707.00;5033371;28;20034;-79
2021/01/31 03:26:34;;;;;;;15.80;7.73;;;;;;;-4.76;81.18;99703.00;5034202;28;20413;-80
2021/01/31 03:29:00;;;;;;;16.67;8.53;;;;;;;-4.70;80.50;99710.97;5024516;28;20485;-79
2021/01/31 03:31:28;;;;;;;31.30;9.43;;;;;;;-4.66;80.23;99718.03;5026430;28;20037;-79
2021/01/31 03:34:06;;;;;;;106.83;13.40;;;;;;;-4.67;80.65;99716.25;5027188;28;20044;-79
2021/01/31 03:36:33;;;;;;;29.77;7.63;;;;;;;-4.66;81.41;99723.16;5025648;28;20041;-80
2021/01/31 03:39:00;;;;;;;17.10;7.87;;;;;;;-4.67;80.96;99719.69;5019843;28;20079;-81
2021/01/31 03:41:28;;;;;;;29.73;7.67;;;;;;;-4.64;81.79;99719.84;5025882;28;20030;-79
2021/01/31 03:43:54;;;;;;;17.80;7.30;;;;;;;-4.60;82.03;99728.56;5018984;28;20193;-80
2021/01/31 03:46:35;;;;;;;35.70;10.67;;;;;;;-4.58;82.23;99724.38;5023684;28;20091;-80
2021/01/31 03:49:23;;;;;;;16.87;7.97;;;;;;;-4.48;81.23;99717.88;5020033;28;20389;-79
2021/01/31 03:51:49;;;;;;;25.00;7.37;;;;;;;-4.54;80.28;99721.06;5027927;28;20092;-80
2021/01/31 03:54:14;;;;;;;17.40;7.83;;;;;;;-4.63;80.46;99731.00;5021625;28;20037;-79
2021/01/31 03:56:54;;;;;;;11.63;6.47;;;;;;;-4.91;80.10;99731.53;5025228;28;20034;-79
2021/01/31 03:59:27;;;;;;;11.60;6.90;;;;;;;-4.98;81.53;99732.97;5025977;28;20041;-79
2021/01/31 04:01:55;;;;;;;12.00;6.95;;;;;;;-4.91;81.13;99734.13;5026881;28;20060;-78
2021/01/31 04:04:44;;;;;;;12.03;6.93;;;;;;;-4.86;81.08;99738.63;5027877;28;20044;-79
2021/01/31 04:07:15;;;;;;;13.00;6.90;;;;;;;-4.79;81.54;99738.88;5025823;28;20052;-80
2021/01/31 04:09:41;;;;;;;10.80;6.27;;;;;;;-4.76;81.16;99739.91;5029388;28;20049;-79
2021/01/31 04:12:10;;;;;;;11.33;6.60;;;;;;;-4.73;81.13;99742.63;5029761;28;20029;-78
2021/01/31 04:14:53;;;;;;;11.37;6.93;;;;;;;-4.80;79.91;99750.00;5026827;28;20040;-77
2021/01/31 04:17:19;;;;;;;15.77;7.83;;;;;;;-4.86;80.55;99745.50;5028962;28;20037;-78
2021/01/31 04:19:46;;;;;;;20.93;8.57;;;;;;;-4.89;80.56;99738.50;5030391;28;20567;-79
2021/01/31 04:22:11;;;;;;;17.50;9.50;;;;;;;-4.98;80.34;99742.38;5029546;28;20132;-78
2021/01/31 04:24:36;;;;;;;13.43;7.07;;;;;;;-5.08;79.58;99741.13;5016978;28;20745;-78
2021/01/31 04:27:03;;;;;;;70.80;11.67;;;;;;;-5.15;80.05;99745.09;5025139;28;20086;-79
2021/01/31 04:29:28;;;;;;;18.07;8.27;;;;;;;-5.31;81.20;99740.09;5025558;28;20033;-78
2021/01/31 04:31:53;;;;;;;14.10;7.87;;;;;;;-5.37;80.50;99734.66;5025932;28;20030;-79
2021/01/31 04:34:19;;;;;;;28.40;10.10;;;;;;;-5.43;81.20;99729.28;5027450;28;20030;-78
2021/01/31 04:36:44;;;;;;;17.30;8.03;;;;;;;-5.52;80.56;99740.03;5028300;28;20036;-80
2021/01/31 04:39:11;;;;;;;18.03;9.03;;;;;;;-5.51;81.59;99729.78;5029662;28;20041;-78
2021/01/31 04:41:39;;;;;;;58.07;11.13;;;;;;;-5.46;81.08;99730.00;5040955;28;20052;-79
2021/01/31 04:44:07;;;;;;;75.23;13.47;;;;;;;-5.44;81.33;99719.81;5025124;28;20038;-79
2021/01/31 04:46:41;;;;;;;71.90;13.93;;;;;;;-5.46;81.47;99732.59;5028556;28;20116;-78
2021/01/31 04:49:15;;;;;;;72.17;9.57;;;;;;;-5.47;81.64;99738.56;5028436;28;20033;-79
2021/01/31 04:52:01;;;;;;;151.60;13.50;;;;;;;-5.52;82.61;99742.59;5024965;28;20040;-77
2021/01/31 04:54:55;;;;;;;36.63;8.00;;;;;;;-5.57;81.61;99746.66;5027442;28;20030;-78
2021/01/31 04:57:38;;;;;;;45.07;9.67;;;;;;;-5.75;81.52;99737.28;5024662;28;20057;-79
2021/01/31 05:00:06;;;;;;;33.33;7.40;;;;;;;-5.83;82.12;99741.19;5037492;28;20094;-78
2021/01/31 05:02:42;;;;;;;49.30;10.10;;;;;;;-5.97;81.71;99747.44;5025512;28;20038;-79
2021/01/31 05:05:27;;;;;;;35.77;9.10;;;;;;;-6.13;81.55;99743.25;5025883;28;20076;-79
2021/01/31 05:07:58;;;;;;;29.03;9.40;;;;;;;-6.32;81.88;99748.28;5026024;28;20042;-77
2021/01/31 05:10:24;;;;;;;36.43;9.50;;;;;;;-6.48;82.11;99755.25;5039836;28;20041;-79
2021/01/31 05:13:08;;;;;;;20.30;6.20;;;;;;;-6.57;81.90;99756.50;5025917;28;20400;-80
2021/01/31 05:15:47;;;;;;;21.57;6.20;;;;;;;-6.66;82.65;99756.91;5029106;28;20052;-78
2021/01/31 05:18:16;;;;;;;26.17;7.47;;;;;;;-6.72;82.13;99756.63;5033059;28;20542;-78
2021/01/31 05:20:47;;;;;;;20.30;7.07;;;;;;;-6.80;82.03;99765.63;5028792;28;20499;-80
2021/01/31 05:23:13;;;;;;;40.47;9.20;;;;;;;-6.89;82.26;99755.75;5027121;28;20034;-79
2021/01/31 05:25:39;;;;;;;15.03;7.73;;;;;;;-7.07;81.64;99758.28;5025398;28;20053;-80
2021/01/31 05:28:06;;;;;;;13.30;6.57;;;;;;;-7.14;82.27;99762.19;5025325;28;20405;-78
2021/01/31 05:30:33;;;;;;;41.87;8.63;;;;;;;-7.20;82.09;99764.47;5028278;28;20053;-79
2021/01/31 05:33:10;;;;;;;16.67;8.13;;;;;;;-7.28;82.59;99768.31;5029020;28;20063;-77
2021/01/31 05:35:45;;;;;;;13.03;6.63;;;;;;;-7.36;82.33;99769.56;5025187;28;20041;-78
2021/01/31 05:38:12;;;;;;;12.63;6.63;;;;;;;-7.46;82.44;99764.78;5025461;28;20415;-78
2021/01/31 05:40:44;;;;;;;13.47;6.87;;;;;;;-7.57;81.91;99769.31;5028473;28;20403;-79
2021/01/31 05:43:23;;;;;;;11.90;6.97;;;;;;;-7.69;81.82;99769.53;5027216;28;20091;-78
2021/01/31 05:45:48;;;;;;;14.10;7.27;;;;;;;-7.77;81.72;99771.69;5023999;28;20042;-79
2021/01/31 05:48:38;;;;;;;15.03;7.67;;;;;;;-7.81;82.14;99768.88;5035488;28;20411;-80
2021/01/31 05:51:16;;;;;;;13.37;7.20;;;;;;;-7.79;82.20;99774.97;5016265;28;20049;-79
2021/01/31 05:53:42;;;;;;;15.17;6.97;;;;;;;-7.71;82.86;99768.56;5023578;28;20593;-78
2021/01/31 05:56:14;;;;;;;17.90;7.60;;;;;;;-7.60;82.99;99780.28;5023824;28;20037;-78
2021/01/31 05:58:40;;;;;;;;;;;;;;;-7.50;82.83;99781.66;5038702;28;20104;-79
2021/01/31 06:01:11;;;;;;;13.63;7.57;;;;;;;-7.39;83.05;99777.09;5022116;28;19909;-78
2021/01/31 06:03:37;;;;;;;12.33;6.87;;;;;;;-7.30;82.70;99782.72;5021184;28;20493;-77
2021/01/31 06:06:15;;;;;;;13.27;7.00;;;;;;;-7.22;82.46;99789.13;5021138;28;20034;-78
2021/01/31 06:08:44;;;;;;;18.33;8.03;;;;;;;-7.19;82.46;99784.16;5019767;28;20030;-79
2021/01/31 06:11:20;;;;;;;48.70;12.40;;;;;;;-7.24;81.40;99794.97;5021399;28;20049;-79
2021/01/31 06:13:47;;;;;;;29.10;9.53;;;;;;;-7.30;82.58;99792.97;5020520;28;20161;-78
2021/01/31 06:16:20;;;;;;;17.20;7.00;;;;;;;-7.30;81.98;99792.97;5024804;28;20034;-78
2021/01/31 06:18:52;;;;;;;16.67;7.00;;;;;;;-7.34;81.87;99794.47;5023812;28;20491;-78
2021/01/31 06:21:18;;;;;;;;;;;;;;;-7.47;82.42;99801.44;5023750;28;20030;-78
2021/01/31 06:24:02;;;;;;;24.17;6.80;;;;;;;-7.47;82.67;99810.00;5021589;28;19913;-77
2021/01/31 06:26:30;;;;;;;46.13;7.03;;;;;;;-7.38;81.92;99809.63;5022634;28;20092;-77
2021/01/31 06:29:04;;;;;;;21.80;7.40;;;;;;;-7.50;81.75;99805.59;5023721;28;20029;-78
2021/01/31 06:31:53;;;;;;;24.70;7.27;;;;;;;-7.57;81.30;99815.44;5029113;28;20518;-78
2021/01/31 06:34:18;;;;;;;25.30;8.33;;;;;;;-7.64;81.26;99808.22;5023661;28;20041;-78
2021/01/31 06:37:02;;;;;;;22.07;7.53;;;;;;;-7.77;81.91;99807.56;5024090;28;20037;-77
2021/01/31 06:39:53;;;;;;;16.40;6.53;;;;;;;-7.78;81.68;99812.59;5020674;28;20041;-78
2021/01/31 06:42:42;;;;;;;14.40;6.70;;;;;;;-7.84;81.68;99817.38;5020867;28;20037;-78
2021/01/31 06:45:32;;;;;;;11.53;6.00;;;;;;;-7.90;81.08;99817.06;5022562;28;20045;-78
2021/01/31 06:48:30;;;;;;;11.47;6.13;;;;;;;-7.98;81.09;99819.19;5019638;28;20057;-78
2021/01/31 06:51:15;;;;;;;15.90;5.83;;;;;;;-8.01;80.72;99819.91;5016772;28;20054;-78
2021/01/31 06:54:19;;;;;;;9.00;5.17;;;;;;;-8.04;81.13;99822.28;5019848;28;20473;-78
2021/01/31 06:56:50;;;;;;;9.83;4.77;;;;;;;-8.08;81.42;99825.47;5017932;28;20042;-79
2021/01/31 06:59:19;;;;;;;15.03;6.27;;;;;;;-8.07;81.22;99822.09;5019218;28;20044;-77
2021/01/31 07:01:59;;;;;;;18.13;6.90;;;;;;;-8.07;80.32;99822.09;5005078;28;20045;-78
2021/01/31 07:04:37;;;;;;;9.27;5.20;;;;;;;-8.11;80.12;99827.84;5019535;28;20046;-78
2021/01/31 07:07:21;;;;;;;11.67;5.53;;;;;;;-8.23;79.87;99827.16;5018909;28;20691;-78
2021/01/31 07:10:10;;;;;;;18.23;6.80;;;;;;;-8.31;80.07;99833.50;5019566;28;20053;-78
2021/01/31 07:13:08;;;;;;;11.20;6.17;;;;;;;-8.37;80.00;99832.34;5019392;28;20038;-79
2021/01/31 07:15:44;;;;;;;24.10;6.77;;;;;;;-8.35;80.53;99837.59;5017661;28;20046;-78
2021/01/31 07:18:13;;;;;;;18.60;7.87;;;;;;;-8.28;80.38;99844.78;5026653;28;20095;-78
2021/01/31 07:20:45;;;;;;;21.20;8.33;;;;;;;-8.18;80.67;99839.41;5019156;28;20069;-78
2021/01/31 07:23:26;;;;;;;32.33;12.13;;;;;;;-8.18;80.20;99838.53;5018160;28;20081;-78
2021/01/31 07:26:18;;;;;;;28.00;13.00;;;;;;;-8.13;80.25;99849.03;5022077;28;20045;-78
2021/01/31 07:28:44;;;;;;;33.43;12.00;;;;;;;-8.07;80.00;99841.69;5020966;28;20037;-77
2021/01/31 07:31:21;;;;;;;36.40;12.63;;;;;;;-8.09;80.33;99843.31;5024121;28;20113;-78
2021/01/31 07:33:54;;;;;;;37.73;9.77;;;;;;;-8.04;80.24;99840.22;5021802;28;20113;-78
2021/01/31 07:36:26;;;;;;;30.67;9.97;;;;;;;-8.04;79.90;99842.78;5028120;28;20407;-77
2021/01/31 07:39:06;;;;;;;19.05;6.57;;;;;;;-8.11;80.48;99845.78;5033648;28;20037;-76
2021/01/31 07:41:33;;;;;;;19.70;8.73;;;;;;;-8.20;80.23;99845.22;5025683;28;20056;-80
2021/01/31 07:44:06;;;;;;;23.13;9.97;;;;;;;-8.13;80.40;99852.47;5027225;28;20377;-78
2021/01/31 07:46:32;;;;;;;22.23;9.23;;;;;;;-7.97;80.53;99839.75;5025005;28;20056;-77
2021/01/31 07:49:00;;;;;;;22.43;10.57;;;;;;;-8.06;80.22;99844.34;5025719;28;20047;-77
2021/01/31 07:51:25;;;;;;;22.87;10.50;;;;;;;-8.06;79.49;99839.25;5032688;28;20386;-77
2021/01/31 07:53:51;;;;;;;22.20;10.20;;;;;;;-8.09;79.97;99833.94;5024364;28;20041;-78
2021/01/31 07:56:26;;;;;;;20.47;10.30;;;;;;;-8.10;79.74;99836.41;5024380;28;20033;-78
2021/01/31 07:58:56;;;;;;;22.93;11.30;;;;;;;-8.21;79.10;99833.25;5023072;28;20120;-77
2021/01/31 08:01:55;;;;;;;19.07;10.03;;;;;;;-8.26;78.97;99832.09;5023903;28;20491;-76
2021/01/31 08:04:27;;;;;;;26.60;13.30;;;;;;;-8.20;79.58;99835.00;5014875;28;20045;-76
2021/01/31 08:06:58;;;;;;;23.92;13.70;;;;;;;-8.16;78.80;99827.59;5020057;28;20041;-77
2021/01/31 08:09:26;;;;;;;19.40;11.33;;;;;;;-8.09;78.25;99826.28;5027063;28;20030;-77
2021/01/31 08:11:59;;;;;;;19.57;10.53;;;;;;;-8.05;78.28;99832.44;5021845;28;20447;-77
2021/01/31 08:15:05;;;;;;;16.90;9.03;;;;;;;-7.98;78.38;99832.88;5023370;28;20096;-77
2021/01/31 08:17:47;;;;;;;16.80;9.07;;;;;;;-7.89;77.70;99821.38;5022530;28;20420;-77
2021/01/31 08:20:28;;;;;;;18.20;9.95;;;;;;;-7.90;78.26;99824.72;5020622;28;20117;-77
2021/01/31 08:22:59;;;;;;;16.30;9.13;;;;;;;-7.94;77.74;99829.69;5023462;28;20041;-77
2021/01/31 08:25:25;;;;;;;18.43;9.70;;;;;;;-7.90;78.16;99832.41;5022899;28;20395;-77
2021/01/31 08:28:02;;;;;;;16.97;9.33;;;;;;;-7.82;77.64;99820.91;5021911;28;20038;-77
2021/01/31 08:30:39;;;;;;;17.83;9.43;;;;;;;-7.69;78.16;99836.16;5024045;28;20034;-78
2021/01/31 08:33:22;;;;;;;17.50;9.83;;;;;;;-7.59;78.27;99833.31;5023912;28;20048;-77
2021/01/31 08:35:48;;;;;;;16.10;8.67;;;;;;;-7.50;78.10;99826.09;5017164;28;20041;-78
2021/01/31 08:38:31;;;;;;;15.53;9.20;;;;;;;-7.39;77.44;99823.25;5021919;28;20045;-77
2021/01/31 08:41:03;;;;;;;16.10;9.10;;;;;;;-7.38;76.86;99825.91;5025332;28;20037;-77
2021/01/31 08:43:35;;;;;;;18.93;9.87;;;;;;;-7.29;77.67;99839.19;5022386;28;20037;-78
2021/01/31 08:46:24;;;;;;;17.05;8.00;;;;;;;-7.24;77.36;99836.00;5021262;28;20038;-77
2021/01/31 08:49:00;;;;;;;19.47;10.37;;;;;;;-7.13;77.74;99825.50;5023975;28;20080;-77
2021/01/31 08:51:31;;;;;;;16.63;9.20;;;;;;;-7.02;77.08;99830.31;5024376;28;20037;-78
2021/01/31 08:54:06;;;;;;;16.73;9.30;;;;;;;-6.93;77.41;99830.81;5026563;28;20106;-77
2021/01/31 08:56:36;;;;;;;13.67;8.80;;;;;;;-6.80;77.08;99827.19;5022932;28;20508;-79
2021/01/31 08:59:03;;;;;;;14.63;7.97;;;;;;;-6.69;76.92;99821.78;5023400;28;20531;-77
2021/01/31 09:01:36;;;;;;;13.73;8.53;;;;;;;-6.61;77.66;99817.94;5023601;28;20180;-77
2021/01/31 09:04:01;;;;;;;13.37;7.90;;;;;;;-6.46;77.24;99816.94;5022090;28;20041;-77
2021/01/31 09:06:26;;;;;;;16.17;9.33;;;;;;;-6.33;76.71;99816.75;5027357;28;20033;-77
2021/01/31 09:08:54;;;;;;;17.70;10.10;;;;;;;-6.22;77.06;99820.72;5030832;28;20040;-76
2021/01/31 09:11:22;;;;;;;17.10;9.07;;;;;;;-6.11;76.80;99815.22;5043094;23;20758;-71
2021/01/31 09:13:47;;;;;;;19.90;9.43;;;;;;;-6.01;77.22;99812.31;5032379;28;20080;-72
2021/01/31 09:16:25;;;;;;;15.77;9.17;;;;;;;-5.87;76.92;99813.78;5023463;28;20072;-72
2021/01/31 09:19:07;;;;;;;16.67;9.00;;;;;;;-5.76;76.15;99820.34;5021050;28;20049;-72
2021/01/31 09:21:35;;;;;;;16.95;10.18;;;;;;;-5.63;75.72;99815.75;5028935;28;20548;-71
2021/01/31 09:24:04;;;;;;;17.17;9.37;;;;;;;-5.49;75.87;99813.84;5021028;28;20439;-72
2021/01/31 09:26:29;;;;;;;19.30;9.90;;;;;;;-5.39;76.58;99816.91;5023175;28;20034;-72
2021/01/31 09:28:58;;;;;;;17.90;11.13;;;;;;;-5.32;75.45;99810.34;5025983;28;20041;-71
2021/01/31 09:31:26;;;;;;;19.07;10.97;;;;;;;-5.31;75.64;99809.56;5022297;28;20438;-72
2021/01/31 09:33:58;;;;;;;22.13;13.10;;;;;;;-5.22;75.62;99809.09;5020585;28;20480;-72
2021/01/31 09:36:27;;;;;;;21.57;11.93;;;;;;;-5.12;75.53;99812.13;5022378;28;20042;-71
2021/01/31 09:38:56;;;;;;;20.23;12.17;;;;;;;-5.03;76.12;99821.06;5024331;28;20037;-72
2021/01/31 09:41:23;;;;;;;22.97;12.10;;;;;;;-4.97;75.67;99811.94;5022331;28;20037;-72
2021/01/31 09:43:55;;;;;;;25.73;14.53;;;;;;;-4.89;75.90;99815.72;5017570;28;20037;-72
2021/01/31 09:46:24;;;;;;;21.50;11.93;;;;;;;-4.80;75.26;99815.25;5023391;28;20065;-72
2021/01/31 09:48:59;;;;;;;22.53;12.97;;;;;;;-4.72;74.67;99819.03;5022975;28;20050;-72
2021/01/31 09:51:26;;;;;;;21.53;12.90;;;;;;;-4.67;74.71;99821.81;5023618;28;20030;-72
2021/01/31 09:53:51;;;;;;;22.87;12.97;;;;;;;-4.65;75.25;99821.06;5023733;28;20049;-72
2021/01/31 09:56:39;;;;;;;20.03;11.33;;;;;;;-4.54;75.38;99826.66;5022791;28;20545;-72
2021/01/31 09:59:35;;;;;;;20.63;11.07;;;;;;;-4.48;75.16;99813.16;5020156;28;20500;-72
2021/01/31 10:02:02;;;;;;;17.43;11.17;;;;;;;-4.28;74.74;99816.59;5020185;28;20033;-72
2021/01/31 10:04:28;;;;;;;18.53;11.50;;;;;;;-4.16;74.91;99819.69;5022414;28;20037;-72
2021/01/31 10:07:06;;;;;;;17.47;11.70;;;;;;;-4.01;74.70;99817.72;5023313;28;20037;-72
2021/01/31 10:09:36;;;;;;;19.53;11.07;;;;;;;-3.87;74.00;99807.97;5020698;28;20042;-71
2021/01/31 10:12:23;;;;;;;20.33;12.43;;;;;;;-3.78;73.45;99810.88;5019744;28;20050;-72
2021/01/31 10:14:50;;;;;;;18.97;12.50;;;;;;;-3.67;73.86;99803.56;5019924;28;20033;-72
2021/01/31 10:17:19;;;;;;;19.57;11.93;;;;;;;-3.56;73.59;99801.44;5020392;28;20124;-72
2021/01/31 10:19:45;;;;;;;20.00;11.80;;;;;;;-3.46;73.66;99798.34;5023217;28;20681;-72
2021/01/31 10:22:24;;;;;;;21.53;11.83;;;;;;;-3.35;72.71;99798.78;5023127;28;20484;-72
2021/01/31 10:24:49;;;;;;;21.47;12.20;;;;;;;-3.26;73.80;99801.69;5019836;28;20496;-72
2021/01/31 10:27:27;;;;;;;20.67;13.00;;;;;;;-3.16;73.17;99801.22;5020259;28;20044;-72
2021/01/31 10:29:55;;;;;;;22.00;11.90;;;;;;;-3.04;72.95;99792.16;5023218;28;20617;-72
2021/01/31 10:32:23;;;;;;;23.10;13.10;;;;;;;-2.93;72.54;99793.44;5021707;28;20034;-71
2021/01/31 10:34:49;;;;;;;23.57;13.63;;;;;;;-2.84;72.58;99791.19;5019713;28;20041;-71
2021/01/31 10:37:17;;;;;;;24.10;14.73;;;;;;;-2.73;72.11;99795.00;5020024;28;20041;-72
2021/01/31 10:39:43;;;;;;;23.93;14.30;;;;;;;-2.62;72.08;99789.34;5023193;28;20037;-72
2021/01/31 10:42:09;;;;;;;22.97;13.87;;;;;;;-2.53;71.84;99792.25;5016848;28;20033;-72
2021/01/31 10:44:34;;;;;;;21.27;13.00;;;;;;;-2.46;71.83;99787.34;5019537;28;20045;-72
2021/01/31 10:46:59;;;;;;;19.83;12.27;;;;;;;-2.37;71.56;99786.78;5025980;28;20040;-72
2021/01/31 10:49:25;;;;;;;21.03;12.23;;;;;;;-2.29;71.28;99792.19;5020947;28;20372;-72
2021/01/31 10:51:51;;;;;;;17.90;11.43;;;;;;;-2.24;71.24;99785.47;5019585;28;20034;-72
2021/01/31 10:54:19;;;;;;;21.00;13.90;;;;;;;-2.17;71.25;99789.13;5020488;28;20632;-72
2021/01/31 10:56:44;;;;;;;21.07;12.57;;;;;;;-2.08;70.81;99792.03;5022728;28;20112;-72
2021/01/31 10:59:09;;;;;;;20.27;13.27;;;;;;;-2.06;70.38;99791.25;5022982;28;20108;-72
2021/01/31 11:01:35;;;;;;;21.13;13.43;;;;;;;-1.99;70.59;99789.75;5019524;28;20038;-72
2021/01/31 11:04:00;;;;;;;25.87;15.33;;;;;;;-1.94;70.03;99783.00;5019394;28;20534;-72
2021/01/31 11:06:27;;;;;;;23.33;14.37;;;;;;;-1.90;69.96;99786.59;5021239;28;20084;-72
2021/01/31 11:08:53;;;;;;;23.20;14.77;;;;;;;-1.87;69.82;99787.53;5022920;28;20403;-72
2021/01/31 11:11:20;;;;;;;25.50;14.50;;;;;;;-1.78;69.47;99786.97;5021561;28;20558;-72
2021/01/31 11:13:45;;;;;;;22.03;13.60;;;;;;;-1.67;69.56;99787.31;5020988;28;20193;-72
2021/01/31 11:16:10;;;;;;;20.77;12.73;;;;;;;-1.61;68.91;99782.31;5022980;28;20069;-72
2021/01/31 11:18:36;;;;;;;21.67;13.63;;;;;;;-1.56;68.68;99778.16;5023331;28;20030;-72
2021/01/31 11:21:01;;;;;;;23.40;14.83;;;;;;;-1.55;69.65;99778.22;5023194;28;20044;-72
2021/01/31 11:23:26;;;;;;;22.60;13.93;;;;;;;-1.47;69.62;99773.25;5025282;28;20140;-72
2021/01/31 11:25:52;;;;;;;22.53;13.37;;;;;;;-1.39;68.63;99771.78;5026304;28;20076;-72
2021/01/31 11:28:17;;;;;;;23.47;14.83;;;;;;;-1.33;69.58;99771.09;5025620;28;20080;-72
2021/01/31 11:30:43;;;;;;;23.07;13.87;;;;;;;-1.24;68.27;99771.34;5024286;28;20633;-72
2021/01/31 11:33:09;;;;;;;21.10;12.57;;;;;;;-1.17;68.87;99772.41;5026218;28;20039;-72
2021/01/31 11:35:34;;;;;;;17.87;11.80;;;;;;;-1.09;68.35;99772.63;5030319;28;20511;-72
2021/01/31 11:38:00;;;;;;;17.43;12.00;;;;;;;-1.03;68.04;99768.47;5045070;28;20067;-73
2021/01/31 11:40:26;;;;;;;16.87;11.03;;;;;;;-0.91;68.13;99770.53;5027766;28;20037;-72
2021/01/31 11:42:52;;;;;;;16.77;10.47;;;;;;;-0.76;67.64;99767.47;5020375;28;20079;-72
2021/01/31 11:45:19;;;;;;;17.27;10.73;;;;;;;-0.62;67.17;99766.16;5023350;28;20038;-72